Time;durP1;ratioP1;P1;durP2;ratioP2;P2;SDS_P1;SDS_P2;PMS_P1;PMS_P2;Temp;Humidity;BMP_temperature;BMP_pressure;BME280_temperature;BME280_humidity;BME280_pressure;Samples;Min_cycle;Max_cycle;Signal;HPM_P1;HPM_P2
2022/05/23 00:02:12;;;;;;;3.28;2.00;;;14.30;99.90;;;;;;5032202;28;20060;-79
2022/05/23 00:04:39;;;;;;;4.85;2.42;;;14.00;99.90;;;;;;5032086;28;20057;-78
2022/05/23 00:07:25;;;;;;;3.80;2.22;;;14.90;99.90;;;;;;5033383;28;20049;-79
2022/05/23 00:09:51;;;;;;;5.43;2.55;;;14.10;99.90;;;;;;5032196;28;20042;-79
2022/05/23 00:12:17;;;;;;;3.38;1.90;;;14.10;99.90;;;;;;5032147;28;20180;-78
2022/05/23 00:14:43;;;;;;;3.80;2.13;;;14.00;99.90;;;;;;5032067;28;20049;-78
2022/05/23 00:17:11;;;;;;;3.35;2.30;;;14.10;99.90;;;;;;5032857;28;20038;-78
2022/05/23 00:19:37;;;;;;;2.80;2.20;;;14.00;99.90;;;;;;5017210;28;20056;-77
2022/05/23 00:22:03;;;;;;;3.60;2.55;;;14.10;99.90;;;;;;5037250;28;20052;-78
2022/05/23 00:24:29;;;;;;;5.28;3.05;;;13.90;99.90;;;;;;5037143;28;20436;-78
2022/05/23 00:26:55;;;;;;;3.78;2.47;;;13.90;99.90;;;;;;5035887;28;20060;-78
2022/05/23 00:29:21;;;;;;;3.80;2.00;;;14.00;99.90;;;;;;5003219;28;20057;-78
2022/05/23 00:37:18;;;;;;;3.53;2.40;;;13.80;99.90;;;;;;5035766;28;20085;-78
2022/05/23 00:39:44;;;;;;;5.43;2.97;;;13.80;99.90;;;;;;5035674;28;20085;-79
2022/05/23 00:45:00;;;;;;;3.70;2.25;;;14.00;99.90;;;;;;5036714;28;20049;-77
2022/05/23 00:47:27;;;;;;;3.28;2.50;;;13.90;99.90;;;;;;5035599;28;20561;-77
2022/05/23 00:49:54;;;;;;;2.35;2.13;;;13.70;99.90;;;;;;5036621;28;20171;-77
2022/05/23 00:52:28;;;;;;;4.38;2.25;;;13.70;99.90;;;;;;5036537;28;20048;-76
2022/05/23 00:54:57;;;;;;;4.18;2.50;;;13.80;99.90;;;;;;5036364;28;20053;-77
2022/05/23 00:57:30;;;;;;;5.50;2.75;;;13.70;99.90;;;;;;5035154;28;20408;-77
2022/05/23 00:59:57;;;;;;;4.00;2.50;;;13.60;99.90;;;;;;5036546;28;20049;-77
2022/05/23 01:02:23;;;;;;;4.25;2.28;;;13.60;99.90;;;;;;5018964;28;20041;-77
2022/05/23 01:04:50;;;;;;;3.85;2.22;;;13.60;99.90;;;;;;5035463;28;20049;-77
2022/05/23 01:07:16;;;;;;;4.25;2.47;;;13.60;99.90;;;;;;5035108;28;20084;-78
2022/05/23 01:09:42;;;;;;;3.25;2.20;;;13.60;99.90;;;;;;5036203;28;20126;-77
2022/05/23 01:12:08;;;;;;;3.92;2.15;;;13.50;99.90;;;;;;5018791;28;20057;-77
2022/05/23 01:14:51;;;;;;;4.63;1.88;;;13.50;99.90;;;;;;5002641;28;20072;-77
2022/05/23 01:17:17;;;;;;;;;;;13.50;99.90;;;;;;5036410;28;20496;-77
2022/05/23 01:19:43;;;;;;;5.03;2.50;;;13.40;99.90;;;;;;5018489;28;19920;-77
2022/05/23 01:22:33;;;;;;;3.53;1.90;;;13.50;99.90;;;;;;5036123;28;20048;-77
2022/05/23 01:25:26;;;;;;;4.78;2.20;;;13.40;99.90;;;;;;5035169;28;20101;-77
2022/05/23 01:27:52;;;;;;;4.45;1.77;;;13.50;99.90;;;;;;5035389;28;20050;-77
2022/05/23 01:30:19;;;;;;;3.55;1.90;;;13.30;99.90;;;;;;5018387;28;20486;-77
2022/05/23 01:32:45;;;;;;;3.75;1.98;;;13.30;99.90;;;;;;5035262;28;20068;-77
2022/05/23 01:35:12;;;;;;;3.05;1.70;;;13.30;99.90;;;;;;5034859;28;20486;-77
2022/05/23 01:37:38;;;;;;;4.43;1.83;;;13.40;99.90;;;;;;5035656;28;20049;-77
2022/05/23 01:40:07;;;;;;;4.07;1.80;;;13.30;99.90;;;;;;5035637;28;20094;-77
2022/05/23 01:42:33;;;;;;;4.18;1.60;;;13.30;99.90;;;;;;5017998;28;20497;-77
2022/05/23 01:44:59;;;;;;;2.85;1.40;;;13.30;99.90;;;;;;5018256;28;20045;-77
2022/05/23 01:47:24;;;;;;;3.85;1.58;;;13.30;99.90;;;;;;5017948;28;20040;-76
2022/05/23 01:49:50;;;;;;;3.28;1.77;;;13.30;99.90;;;;;;5034638;28;20107;-77
2022/05/23 01:52:16;;;;;;;3.13;1.42;;;13.40;99.90;;;;;;5035595;28;20409;-78
2022/05/23 01:54:41;;;;;;;3.63;1.50;;;13.20;99.90;;;;;;5035347;28;20444;-77
2022/05/23 01:57:11;;;;;;;4.28;1.75;;;13.20;99.90;;;;;;5034673;28;20049;-77
2022/05/23 02:02:21;;;;;;;3.03;1.50;;;13.20;99.90;;;;;;5034723;28;20065;-76
2022/05/23 02:04:47;;;;;;;2.67;1.48;;;13.30;99.90;;;;;;5034049;28;20209;-77
2022/05/23 02:07:14;;;;;;;2.53;1.30;;;13.20;99.90;;;;;;5033902;28;20144;-77
2022/05/23 02:09:40;;;;;;;2.95;1.67;;;13.20;99.90;;;;;;5033821;28;20045;-78
2022/05/23 02:12:07;;;;;;;4.70;1.75;;;13.20;99.90;;;;;;5035198;28;20045;-77
2022/05/23 02:14:34;;;;;;;4.20;1.35;;;13.20;99.90;;;;;;5033878;28;20045;-76
2022/05/23 02:16:59;;;;;;;3.25;1.50;;;13.40;99.90;;;;;;5034905;28;20401;-76
2022/05/23 02:19:25;;;;;;;1.95;1.60;;;13.20;99.90;;;;;;5035048;28;20045;-76
2022/05/23 02:21:51;;;;;;;5.22;2.00;;;13.20;99.90;;;;;;5017388;28;20096;-76
2022/05/23 02:24:17;;;;;;;3.05;1.50;;;13.30;99.90;;;;;;5033665;28;20103;-76
2022/05/23 02:26:44;;;;;;;4.18;1.60;;;13.20;99.90;;;;;;5033498;28;20045;-77
2022/05/23 02:29:10;;;;;;;5.15;1.48;;;13.20;99.90;;;;;;5033860;28;20055;-77
2022/05/23 02:31:37;;;;;;;4.10;1.38;;;13.20;99.90;;;;;;5033618;28;20045;-76
2022/05/23 02:34:03;;;;;;;2.38;1.50;;;13.20;99.90;;;;;;5034732;28;20216;-76
2022/05/23 02:36:28;;;;;;;3.25;1.50;;;13.20;99.90;;;;;;5034496;28;20050;-76
2022/05/23 02:38:55;;;;;;;3.63;1.50;;;13.40;99.90;;;;;;5033152;28;20045;-76
2022/05/23 02:41:22;;;;;;;2.72;1.30;;;13.20;99.90;;;;;;5033628;28;20478;-77
2022/05/23 02:43:48;;;;;;;4.05;1.65;;;13.20;99.90;;;;;;5033710;28;20048;-77
2022/05/23 02:46:14;;;;;;;3.85;1.17;;;13.30;99.90;;;;;;5034602;28;20049;-77
2022/05/23 02:48:40;;;;;;;2.78;1.45;;;13.20;99.90;;;;;;5017027;28;20052;-77
2022/05/23 02:51:05;;;;;;;3.45;1.80;;;13.30;99.90;;;;;;5034435;28;20049;-76
2022/05/23 02:53:31;;;;;;;3.35;1.40;;;13.50;99.90;;;;;;5032740;28;20161;-76
2022/05/23 02:55:57;;;;;;;2.30;1.38;;;13.20;99.90;;;;;;5000591;28;20065;-76
2022/05/23 02:58:22;;;;;;;3.60;1.55;;;13.20;99.90;;;;;;5033029;28;20091;-76
2022/05/23 03:00:49;;;;;;;3.85;1.40;;;13.30;99.90;;;;;;5034213;28;20098;-77
2022/05/23 03:03:15;;;;;;;2.75;1.50;;;13.30;99.90;;;;;;5034108;28;20118;-76
2022/05/23 03:05:44;;;;;;;4.07;1.38;;;13.40;99.90;;;;;;5034061;28;20137;-77
2022/05/23 03:08:11;;;;;;;3.90;1.48;;;13.30;99.90;;;;;;5032833;28;20049;-76
2022/05/23 03:10:38;;;;;;;3.45;1.83;;;13.30;99.90;;;;;;5032964;28;20123;-76
2022/05/23 03:13:04;;;;;;;4.57;1.77;;;13.30;99.90;;;;;;5000256;28;20052;-76
2022/05/23 03:15:30;;;;;;;4.82;1.70;;;13.30;99.90;;;;;;5033890;28;20049;-77
2022/05/23 03:17:56;;;;;;;4.07;1.50;;;13.30;99.90;;;;;;5032876;28;20081;-76
2022/05/23 03:20:22;;;;;;;3.35;1.70;;;13.30;99.90;;;;;;5033687;28;20524;-76
2022/05/23 03:28:17;;;;;;;2.60;1.40;;;13.30;99.90;;;;;;5033307;28;20548;-77
2022/05/23 03:30:44;;;;;;;3.60;1.60;;;13.30;99.90;;;;;;5033835;28;20084;-76
2022/05/23 03:33:11;;;;;;;3.13;1.60;;;13.30;99.90;;;;;;5033370;28;20084;-77
2022/05/23 03:35:37;;;;;;;3.67;1.83;;;13.30;99.90;;;;;;5032633;28;20397;-77
2022/05/23 03:38:03;;;;;;;4.03;1.83;;;13.20;99.90;;;;;;5032467;28;20045;-77
2022/05/23 03:40:29;;;;;;;2.92;1.58;;;13.30;99.90;;;;;;5016286;28;20129;-76
2022/05/23 03:42:56;;;;;;;2.53;1.67;;;13.20;99.90;;;;;;5033500;28;20053;-76
2022/05/23 03:45:22;;;;;;;6.82;1.75;;;13.30;99.90;;;;;;5033362;28;20140;-77
2022/05/23 03:47:51;;;;;;;2.85;1.70;;;13.30;99.90;;;;;;5032193;28;20045;-77
2022/05/23 03:50:19;;;;;;;4.50;1.77;;;13.30;99.90;;;;;;5032567;28;20097;-76
2022/05/23 03:52:44;;;;;;;3.50;1.83;;;13.30;99.90;;;;;;5032218;28;20061;-76
2022/05/23 03:55:10;;;;;;;3.78;1.95;;;13.40;99.90;;;;;;5033125;28;20405;-77
2022/05/23 03:57:37;;;;;;;4.47;2.08;;;13.40;99.90;;;;;;5015449;28;20045;-77
2022/05/23 04:00:07;;;;;;;4.45;1.67;;;13.30;99.90;;;;;;5033263;28;20049;-77
2022/05/23 04:02:33;;;;;;;3.15;2.25;;;13.40;99.90;;;;;;5033088;28;20045;-77
2022/05/23 04:04:59;;;;;;;5.10;2.13;;;13.30;99.90;;;;;;5033393;28;20107;-77
2022/05/23 04:07:25;;;;;;;3.17;1.80;;;13.30;99.90;;;;;;5033236;28;20041;-76
2022/05/23 04:09:51;;;;;;;4.70;1.90;;;13.50;99.90;;;;;;5033469;28;20063;-77
2022/05/23 04:12:17;;;;;;;5.00;2.00;;;13.40;99.90;;;;;;5033176;28;20088;-76
2022/05/23 04:14:42;;;;;;;4.15;2.00;;;13.50;99.90;;;;;;5031807;28;20041;-77
2022/05/23 04:17:09;;;;;;;3.65;1.77;;;13.40;99.90;;;;;;5031545;28;20033;-77
2022/05/23 04:19:35;;;;;;;4.63;2.15;;;13.40;99.90;;;;;;5032614;28;20473;-76
2022/05/23 04:22:01;;;;;;;2.72;2.00;;;13.40;99.90;;;;;;5032290;28;20089;-76
2022/05/23 04:24:27;;;;;;;2.80;2.00;;;13.40;99.90;;;;;;5032061;28;20089;-77
2022/05/23 04:26:54;;;;;;;4.40;2.90;;;13.40;99.90;;;;;;5015302;28;20064;-77
2022/05/23 04:29:21;;;;;;;4.95;2.60;;;13.50;99.90;;;;;;5015627;28;20045;-77
2022/05/23 04:31:47;;;;;;;4.53;2.15;;;13.60;99.90;;;;;;5032126;28;20060;-76
2022/05/23 04:36:56;;;;;;;3.90;2.38;;;13.60;99.90;;;;;;5032904;28;20049;-76
2022/05/23 04:39:22;;;;;;;4.15;2.35;;;13.60;99.90;;;;;;4999504;28;20058;-76
2022/05/23 04:41:49;;;;;;;3.92;2.05;;;13.60;99.90;;;;;;5032910;28;20547;-77
2022/05/23 04:44:14;;;;;;;3.13;2.20;;;13.60;99.90;;;;;;5032007;28;20054;-77
2022/05/23 04:49:41;;;;;;;4.78;2.40;;;13.60;99.90;;;;;;5031958;28;20132;-77
2022/05/23 04:49:42;;;;;;;5.05;2.90;;;13.60;99.90;;;;;;5018029;28;20056;-77
2022/05/23 04:52:12;;;;;;;3.95;2.38;;;13.70;99.90;;;;;;5033040;28;20052;-77
2022/05/23 04:54:39;;;;;;;3.63;2.60;;;13.70;99.90;;;;;;5032584;28;20421;-77
2022/05/23 04:57:05;;;;;;;3.92;2.38;;;13.70;99.90;;;;;;5032803;28;20048;-77
2022/05/23 04:59:31;;;;;;;4.90;2.70;;;13.80;99.90;;;;;;5033235;28;20076;-76
2022/05/23 05:01:57;;;;;;;4.20;2.40;;;13.90;99.90;;;;;;5032817;28;20493;-77
2022/05/23 05:04:23;;;;;;;7.53;3.30;;;13.90;99.90;;;;;;5015076;28;20049;-78
2022/05/23 05:06:48;;;;;;;3.83;2.40;;;13.90;99.90;;;;;;5032749;28;20041;-78
2022/05/23 05:09:14;;;;;;;3.08;2.45;;;14.00;99.90;;;;;;5036060;28;20084;-77
2022/05/23 05:11:40;;;;;;;4.65;3.00;;;13.90;99.90;;;;;;5036325;28;20045;-78
2022/05/23 05:14:05;;;;;;;5.57;3.10;;;14.20;99.90;;;;;;5035695;28;20045;-78
2022/05/23 05:16:32;;;;;;;5.88;3.00;;;14.00;99.90;;;;;;5018654;28;20056;-78
2022/05/23 05:18:59;;;;;;;3.72;2.97;;;14.00;99.90;;;;;;5035052;28;20539;-78
2022/05/23 05:21:25;;;;;;;3.78;2.80;;;14.10;99.90;;;;;;5036196;28;20045;-78
2022/05/23 05:23:50;;;;;;;5.22;3.10;;;14.10;99.90;;;;;;5034746;28;20531;-78
2022/05/23 05:26:16;;;;;;;7.05;3.45;;;14.10;99.90;;;;;;5018675;28;20046;-76
2022/05/23 05:28:42;;;;;;;4.43;3.22;;;14.20;99.90;;;;;;5034341;28;20045;-78
2022/05/23 05:31:25;;;;;;;5.10;2.80;;;14.20;99.90;;;;;;5018352;28;20056;-78
2022/05/23 05:33:54;;;;;;;;;;;14.20;99.90;;;;;;5035209;28;20096;-78
2022/05/23 05:36:28;;;;;;;4.57;2.83;;;14.30;99.90;;;;;;5035795;28;19947;-77
2022/05/23 05:39:00;;;;;;;4.57;2.95;;;14.30;99.90;;;;;;5035142;28;20060;-78
2022/05/23 05:41:45;;;;;;;3.83;3.33;;;14.40;99.90;;;;;;5018823;28;20095;-77
2022/05/23 05:44:19;;;;;;;5.43;3.53;;;14.40;99.90;;;;;;5035956;28;20053;-78
2022/05/23 05:46:50;;;;;;;6.05;3.50;;;14.40;99.90;;;;;;5034377;28;20045;-78
2022/05/23 05:49:20;;;;;;;3.67;3.08;;;14.30;99.90;;;;;;5035829;28;20076;-79
2022/05/23 05:51:49;;;;;;;4.07;3.40;;;14.40;99.90;;;;;;5035498;28;20413;-77
2022/05/23 05:54:22;;;;;;;6.38;3.83;;;14.50;99.90;;;;;;5035170;28;20053;-77
2022/05/23 05:56:49;;;;;;;6.43;3.45;;;14.50;99.90;;;;;;5017901;28;20136;-77
2022/05/23 05:59:16;;;;;;;4.25;3.30;;;14.50;99.90;;;;;;5034593;28;20414;-77
2022/05/23 06:01:42;;;;;;;6.60;3.38;;;14.60;99.90;;;;;;5034247;28;20041;-77
2022/05/23 06:04:08;;;;;;;7.78;3.58;;;14.50;99.90;;;;;;5035371;28;20551;-77
2022/05/23 06:12:02;;;;;;;5.18;3.42;;;14.70;99.90;;;;;;5035354;28;20053;-78
2022/05/23 06:14:28;;;;;;;6.25;3.58;;;14.70;99.90;;;;;;5034203;28;20037;-78
2022/05/23 06:16:54;;;;;;;3.78;3.42;;;14.90;99.90;;;;;;5033656;28;20041;-77
2022/05/23 06:19:22;;;;;;;5.35;3.90;;;14.70;99.90;;;;;;5034966;28;20085;-77
2022/05/23 06:21:48;;;;;;;5.88;3.53;;;14.80;99.90;;;;;;5033958;28;20128;-77
2022/05/23 06:24:14;;;;;;;6.22;4.10;;;14.80;99.90;;;;;;5034874;28;20458;-77
2022/05/23 06:26:41;;;;;;;5.28;3.90;;;14.80;99.90;;;;;;5034984;28;20124;-77
2022/05/23 06:29:06;;;;;;;6.97;4.00;;;14.80;99.90;;;;;;5034279;28;20056;-77
2022/05/23 06:31:32;;;;;;;7.07;3.75;;;14.80;99.90;;;;;;5033925;28;20549;-77
2022/05/23 06:33:58;;;;;;;5.70;3.63;;;14.90;99.90;;;;;;5034692;28;20080;-77
2022/05/23 06:36:23;;;;;;;7.57;4.13;;;14.90;99.90;;;;;;5033791;28;20060;-77
2022/05/23 06:38:49;;;;;;;5.75;3.97;;;14.90;99.90;;;;;;5033128;28;20072;-77
2022/05/23 06:41:16;;;;;;;5.10;4.60;;;15.00;99.90;;;;;;5033962;28;20095;-77
2022/05/23 06:43:43;;;;;;;7.03;4.45;;;15.10;99.90;;;;;;5033780;28;20061;-76
2022/05/23 06:46:11;;;;;;;6.65;4.18;;;15.10;99.90;;;;;;5034724;28;20479;-77
2022/05/23 06:48:38;;;;;;;6.57;4.45;;;15.30;99.90;;;;;;5033222;28;20547;-77
2022/05/23 06:51:05;;;;;;;6.57;4.07;;;15.30;99.90;;;;;;5033563;28;20089;-77
2022/05/23 06:53:31;;;;;;;6.63;4.05;;;15.30;99.90;;;;;;5032799;28;20479;-77
2022/05/23 06:55:58;;;;;;;6.55;4.00;;;15.40;99.90;;;;;;5033272;28;20123;-77
2022/05/23 06:58:24;;;;;;;7.80;4.40;;;15.50;99.90;;;;;;5033760;28;20041;-78
2022/05/23 07:00:51;;;;;;;5.05;4.32;;;15.60;99.90;;;;;;5033302;28;20053;-77
2022/05/23 07:03:17;;;;;;;7.20;4.60;;;15.70;99.90;;;;;;5034185;28;20124;-77
2022/05/23 07:13:56;;;;;;;5.93;4.25;;;15.90;99.90;;;;;;5034746;28;20123;-78
2022/05/23 07:16:23;;;;;;;7.68;4.30;;;16.00;99.90;;;;;;5033486;28;20056;-78
2022/05/23 07:18:49;;;;;;;7.03;4.15;;;16.10;99.90;;;;;;5034120;28;20053;-78
2022/05/23 07:21:15;;;;;;;6.45;4.82;;;16.20;99.90;;;;;;5034149;28;20555;-79
2022/05/23 07:23:41;;;;;;;7.50;4.65;;;16.20;99.90;;;;;;5033308;28;20058;-78
2022/05/23 07:26:10;;;;;;;7.57;4.47;;;16.30;99.90;;;;;;5033656;28;20557;-78
2022/05/23 07:28:36;;;;;;;5.25;3.95;;;16.30;99.90;;;;;;5033774;28;20046;-79
2022/05/23 07:31:03;;;;;;;8.00;4.50;;;16.30;99.90;;;;;;5033064;28;20049;-78
2022/05/23 07:33:30;;;;;;;6.85;4.05;;;16.40;99.90;;;;;;5034393;28;20478;-79
2022/05/23 07:35:57;;;;;;;6.95;4.28;;;16.50;99.90;;;;;;5034258;28;20126;-79
2022/05/23 07:38:23;;;;;;;5.47;3.78;;;16.50;99.90;;;;;;5033517;28;20492;-80
2022/05/23 07:40:50;;;;;;;5.93;4.22;;;16.60;99.90;;;;;;5032767;28;20041;-79
2022/05/23 07:43:16;;;;;;;5.50;4.07;;;16.70;99.90;;;;;;5032677;28;20045;-78
2022/05/23 07:45:43;;;;;;;7.68;4.38;;;16.80;99.90;;;;;;5032716;28;20057;-77
2022/05/23 07:48:08;;;;;;;5.00;3.83;;;16.80;99.90;;;;;;5033773;28;20129;-77
2022/05/23 07:50:34;;;;;;;5.13;4.20;;;16.90;99.90;;;;;;5033213;28;20132;-78
2022/05/23 08:01:20;;;;;;;7.43;4.25;;;17.20;99.90;;;;;;5016917;28;20053;-78
2022/05/23 08:03:48;;;;;;;6.05;3.78;;;17.30;99.90;;;;;;5032762;28;20048;-77
2022/05/23 08:06:14;;;;;;;4.75;3.92;;;17.40;99.90;;;;;;5033268;28;20045;-78
2022/05/23 08:08:40;;;;;;;5.43;3.65;;;17.40;99.90;;;;;;5033612;28;20052;-79
2022/05/23 08:11:08;;;;;;;7.35;4.20;;;17.50;99.90;;;;;;5033035;28;20132;-76
2022/05/23 08:13:36;;;;;;;6.43;3.63;;;17.50;99.90;;;;;;5033419;28;20045;-78
2022/05/23 08:16:02;;;;;;;5.53;3.97;;;17.60;99.90;;;;;;5033381;28;20054;-77
2022/05/23 08:18:28;;;;;;;6.40;4.07;;;17.60;99.90;;;;;;5015628;28;20081;-80
2022/05/23 08:20:54;;;;;;;6.50;3.78;;;17.80;99.90;;;;;;5033231;28;20092;-80
2022/05/23 08:23:20;;;;;;;4.78;4.03;;;18.10;99.90;;;;;;5032485;28;20049;-79
2022/05/23 08:25:46;;;;;;;5.57;4.25;;;18.00;99.90;;;;;;5033886;28;20049;-79
2022/05/23 08:28:11;;;;;;;6.20;3.80;;;18.10;99.90;;;;;;5016474;28;20089;-79
2022/05/23 08:30:37;;;;;;;5.43;3.83;;;18.20;99.90;;;;;;5032685;28;20083;-78
2022/05/23 08:33:03;;;;;;;5.88;3.20;;;18.40;99.90;;;;;;5033576;28;20045;-80
2022/05/23 08:35:29;;;;;;;6.03;3.50;;;18.50;99.90;;;;;;5015643;28;20041;-78
2022/05/23 08:37:55;;;;;;;5.10;3.65;;;18.60;99.90;;;;;;5033669;28;20516;-82
2022/05/23 08:40:39;;;;;;;5.28;3.40;;;18.70;99.90;;;;;;5032448;28;20041;-82
2022/05/23 08:43:06;;;;;;;3.67;3.10;;;18.70;99.90;;;;;;5033487;28;20095;-82
2022/05/23 08:45:37;;;;;;;3.88;3.30;;;18.80;99.90;;;;;;5019724;28;20099;-81
2022/05/23 08:48:10;;;;;;;5.22;3.45;;;18.90;99.90;;;;;;5019757;28;20091;-84
2022/05/23 08:50:59;;;;;;;6.93;3.28;;;19.00;99.90;;;;;;5036324;28;20072;-81
2022/05/23 08:53:50;;;;;;;6.63;3.40;;;19.00;99.90;;;;;;5036030;28;20516;-81
2022/05/23 08:56:39;;;;;;;6.35;3.35;;;19.10;99.90;;;;;;5034845;28;20067;-81
2022/05/23 08:59:31;;;;;;;5.25;3.40;;;19.10;99.90;;;;;;5036901;28;20120;-81
2022/05/23 09:02:12;;;;;;;5.32;4.00;;;19.20;99.90;;;;;;5035480;28;20068;-81
2022/05/23 09:04:45;;;;;;;5.00;3.90;;;19.30;99.90;;;;;;5018185;28;20071;-81
2022/05/23 09:07:25;;;;;;;4.90;4.03;;;19.20;99.90;;;;;;5016869;28;20037;-80
2022/05/23 09:09:53;;;;;;;5.15;4.03;;;19.50;99.90;;;;;;5033313;28;20045;-80
2022/05/23 09:12:19;;;;;;;4.07;3.67;;;19.50;99.90;;;;;;5036274;28;20049;-80
2022/05/23 09:14:45;;;;;;;5.80;3.60;;;19.60;99.90;;;;;;5016067;28;20175;-78
2022/05/23 09:17:25;;;;;;;6.72;3.60;;;19.60;99.90;;;;;;5034757;28;20124;-77
2022/05/23 09:20:16;;;;;;;6.22;3.80;;;19.70;99.90;;;;;;5017014;28;20494;-80
2022/05/23 09:22:55;;;;;;;5.75;3.67;;;19.80;99.90;;;;;;5018622;28;20057;-78
2022/05/23 09:25:25;;;;;;;6.57;4.38;;;19.80;99.90;;;;;;5035173;28;20045;-78
2022/05/23 09:28:24;;;;;;;5.97;4.05;;;19.90;99.90;;;;;;5035125;28;20116;-78
2022/05/23 09:30:58;;;;;;;4.38;3.22;;;20.00;99.90;;;;;;5032932;28;20045;-79
2022/05/23 09:33:26;;;;;;;6.25;3.85;;;20.00;99.90;;;;;;5035714;28;20071;-78
2022/05/23 09:36:08;;;;;;;4.82;3.80;;;20.10;99.90;;;;;;5032878;28;20048;-78
2022/05/23 09:38:45;;;;;;;5.00;4.00;;;20.10;99.90;;;;;;5017084;28;20041;-78
2022/05/23 09:47:44;;;;;;;5.90;4.22;;;20.20;99.90;;;;;;5032628;28;20053;-78
2022/05/23 09:49:46;;;;;;;5.35;4.18;;;20.50;99.90;;;;;;5014685;28;20050;-79
2022/05/23 09:52:19;;;;;;;4.95;3.72;;;20.50;99.90;;;;;;5031420;28;20060;-79
2022/05/23 09:54:46;;;;;;;5.38;3.03;;;20.60;99.90;;;;;;5029171;28;20080;-78
2022/05/23 09:57:53;;;;;;;5.15;3.05;;;20.70;99.90;;;;;;5025601;28;20037;-80
2022/05/23 10:00:20;;;;;;;6.05;3.38;;;20.70;99.90;;;;;;5044816;28;20379;-78
2022/05/23 10:02:54;;;;;;;6.30;3.10;;;20.70;99.90;;;;;;5026999;28;20041;-79
2022/05/23 10:05:26;;;;;;;8.02;4.00;;;20.80;99.90;;;;;;5029389;28;20041;-80
2022/05/23 10:07:55;;;;;;;5.65;3.58;;;20.90;99.90;;;;;;5028107;28;20037;-78
2022/05/23 10:10:26;;;;;;;3.10;2.80;;;20.90;99.90;;;;;;5027346;28;20048;-78
2022/05/23 10:13:26;;;;;;;6.90;3.30;;;21.00;99.90;;;;;;5028554;28;20057;-82
2022/05/23 10:15:58;;;;;;;4.22;2.70;;;21.00;99.90;;;;;;5027028;28;20387;-79
2022/05/23 10:18:30;;;;;;;;;;;21.10;99.90;;;;;;5026803;28;20446;-81
2022/05/23 10:20:57;;;;;;;4.80;2.90;;;21.20;99.90;;;;;;5027608;28;20420;-81
2022/05/23 10:23:27;;;;;;;5.55;2.72;;;21.20;99.90;;;;;;5024118;28;20114;-80
2022/05/23 10:26:13;;;;;;;5.15;2.85;;;21.30;99.90;;;;;;5028655;28;20045;-81
2022/05/23 10:29:05;;;;;;;3.33;2.40;;;21.30;99.90;;;;;;5039073;28;20069;-82
2022/05/23 10:31:52;;;;;;;4.85;3.10;;;21.40;99.90;;;;;;5024463;28;20049;-81
2022/05/23 10:34:45;;;;;;;4.95;2.78;;;21.50;99.90;;;;;;5024134;28;20065;-80
2022/05/23 10:37:32;;;;;;;4.47;2.60;;;21.60;99.90;;;;;;5023008;28;20037;-79
2022/05/23 10:42:52;;;;;;;5.63;2.33;;;21.70;99.90;;;;;;5024621;28;20057;-76
2022/05/23 10:45:48;;;;;;;5.53;2.25;;;21.80;99.90;;;;;;5028926;28;20095;-78
2022/05/23 10:48:37;;;;;;;5.57;1.90;;;21.90;99.90;;;;;;5026024;28;20034;-77
2022/05/23 10:51:24;;;;;;;2.33;1.77;;;22.00;99.90;;;;;;5024522;28;20052;-77
2022/05/23 10:54:14;;;;;;;5.75;2.10;;;22.10;99.90;;;;;;5010254;28;20076;-79
2022/05/23 10:57:02;;;;;;;3.50;1.95;;;22.20;99.90;;;;;;5029883;28;20464;-80
2022/05/23 11:00:09;;;;;;;3.45;1.40;;;22.20;99.90;;;;;;5027461;28;20136;-75
2022/05/23 11:02:51;;;;;;;3.08;1.30;;;22.30;99.90;;;;;;4982259;28;20046;-74
2022/05/23 11:05:37;;;;;;;2.55;1.10;;;22.40;99.90;;;;;;5024257;28;20556;-78
2022/05/23 11:08:25;;;;;;;4.13;1.33;;;22.50;99.90;;;;;;5025532;28;20041;-74
2022/05/23 11:11:17;;;;;;;3.58;1.10;;;22.50;99.90;;;;;;5028215;28;20057;-73
2022/05/23 11:14:08;;;;;;;2.33;1.30;;;22.60;99.90;;;;;;5028226;28;20049;-72
2022/05/23 11:16:52;;;;;;;5.07;1.08;;;22.60;99.90;;;;;;5026146;28;20116;-75
2022/05/23 11:19:37;;;;;;;5.25;1.55;;;22.70;99.80;;;;;;5025692;28;20421;-77
2022/05/23 11:22:09;;;;;;;4.70;1.70;;;22.80;99.30;;;;;;5027010;28;20064;-72
2022/05/23 11:25:11;;;;;;;1.73;1.60;;;22.90;99.30;;;;;;5025631;28;20041;-76
2022/05/23 11:33:43;;;;;;;3.75;1.55;;;23.20;95.60;;;;;;5020256;28;20045;-73
2022/05/23 11:36:09;;;;;;;1.90;1.10;;;23.20;95.10;;;;;;5029176;28;20041;-74
2022/05/23 11:38:44;;;;;;;3.67;1.42;;;23.20;94.60;;;;;;5026977;28;20040;-74
2022/05/23 11:41:32;;;;;;;3.35;1.27;;;23.20;94.40;;;;;;5028697;28;20041;-81
2022/05/23 11:43:59;;;;;;;2.28;0.90;;;23.20;94.40;;;;;;5026572;28;20057;-73
2022/05/23 11:47:05;;;;;;;2.03;0.98;;;23.20;93.80;;;;;;5027393;28;20049;-74
2022/05/23 11:50:00;;;;;;;4.30;1.10;;;23.20;94.30;;;;;;5027849;28;20041;-74
2022/05/23 11:52:54;;;;;;;2.25;0.88;;;23.20;94.20;;;;;;5017363;28;20509;-74
2022/05/23 11:55:52;;;;;;;2.15;1.10;;;23.20;93.80;;;;;;5022924;28;20107;-75
2022/05/23 11:58:36;;;;;;;2.53;1.10;;;23.20;94.10;;;;;;5025796;28;20049;-72
2022/05/23 12:01:11;;;;;;;3.40;1.20;;;23.20;94.00;;;;;;5039028;28;20099;-72
2022/05/23 12:03:51;;;;;;;2.83;1.10;;;23.20;93.80;;;;;;5032891;28;20120;-71
2022/05/23 12:06:19;;;;;;;4.05;0.90;;;23.10;93.20;;;;;;5014035;28;20072;-72
2022/05/23 12:08:57;;;;;;;1.33;1.10;;;23.20;92.60;;;;;;5032914;28;20054;-72
2022/05/23 12:11:28;;;;;;;1.65;0.93;;;23.20;92.90;;;;;;5032807;28;20037;-72
2022/05/23 12:13:59;;;;;;;1.45;1.08;;;23.20;92.80;;;;;;5032924;28;20103;-72
2022/05/23 12:16:31;;;;;;;3.92;1.17;;;23.20;93.00;;;;;;5034260;28;20559;-71
2022/05/23 12:19:19;;;;;;;3.03;1.05;;;23.30;93.20;;;;;;5037032;28;20526;-71
2022/05/23 12:21:47;;;;;;;3.05;1.27;;;23.30;93.50;;;;;;5036628;28;20049;-73
2022/05/23 12:24:27;;;;;;;1.77;1.10;;;23.40;93.00;;;;;;5036903;28;20049;-73
2022/05/23 12:26:56;;;;;;;2.03;1.08;;;23.40;92.50;;;;;;5033994;28;20052;-73
2022/05/23 12:29:31;;;;;;;3.25;1.23;;;23.50;91.80;;;;;;5035029;28;20049;-73
2022/05/23 12:32:21;;;;;;;3.40;1.20;;;23.60;91.50;;;;;;5029154;28;20095;-72
2022/05/23 12:34:49;;;;;;;2.42;1.30;;;23.70;92.00;;;;;;5036821;28;20053;-71
2022/05/23 12:37:38;;;;;;;2.35;1.27;;;23.70;92.10;;;;;;5036250;28;20045;-72
2022/05/23 12:40:23;;;;;;;2.20;1.02;;;23.70;92.60;;;;;;5035252;28;20049;-72
2022/05/23 12:43:13;;;;;;;2.30;1.30;;;23.80;92.50;;;;;;5034071;28;20052;-72
2022/05/23 12:45:42;;;;;;;3.10;1.20;;;23.90;92.60;;;;;;5035364;28;20046;-72
2022/05/23 12:48:35;;;;;;;1.42;1.20;;;23.90;93.20;;;;;;5032777;28;20041;-73
2022/05/23 12:51:21;;;;;;;2.55;1.20;;;24.10;93.40;;;;;;5035688;28;20059;-74
2022/05/23 12:53:49;;;;;;;2.58;1.33;;;24.10;93.10;;;;;;5032259;28;20124;-73
2022/05/23 12:56:49;;;;;;;3.70;1.48;;;24.20;92.10;;;;;;5035987;28;20096;-71
2022/05/23 12:59:34;;;;;;;3.50;1.17;;;24.30;92.00;;;;;;5035899;28;20537;-72
2022/05/23 13:02:12;;;;;;;1.95;1.20;;;24.30;91.60;;;;;;5033962;28;20048;-72
2022/05/23 13:04:55;;;;;;;3.47;1.40;;;24.30;91.70;;;;;;5033793;28;20129;-72
2022/05/23 13:07:45;;;;;;;3.53;1.55;;;24.30;91.20;;;;;;5035397;28;20053;-72
2022/05/23 13:10:18;;;;;;;2.53;1.35;;;24.30;91.80;;;;;;5034133;28;20114;-71
2022/05/23 13:12:53;;;;;;;2.53;1.02;;;24.20;91.10;;;;;;5035980;28;20056;-72
2022/05/23 13:15:24;;;;;;;2.83;1.70;;;24.10;90.60;;;;;;5034752;28;20497;-71
2022/05/23 13:17:50;;;;;;;3.30;1.40;;;24.00;90.40;;;;;;5018324;28;20049;-72
2022/05/23 13:23:17;;;;;;;3.00;1.42;;;23.80;91.40;;;;;;5032649;28;20175;-73
2022/05/23 13:25:44;;;;;;;2.53;1.40;;;23.70;90.80;;;;;;5034340;28;20524;-74
2022/05/23 13:28:12;;;;;;;3.33;1.65;;;23.60;91.20;;;;;;5016754;28;20057;-73
2022/05/23 13:30:48;;;;;;;2.88;1.42;;;23.60;91.60;;;;;;5035692;28;20092;-73
2022/05/23 13:33:18;;;;;;;2.53;1.67;;;23.60;91.30;;;;;;5034156;28;20045;-74
2022/05/23 13:35:46;;;;;;;4.75;1.40;;;23.60;91.00;;;;;;5034353;28;20163;-74
2022/05/23 13:38:21;;;;;;;2.83;1.30;;;23.70;91.20;;;;;;5034422;28;20064;-73
2022/05/23 13:40:51;;;;;;;3.10;1.67;;;23.70;91.60;;;;;;5033160;28;20045;-74
2022/05/23 13:43:23;;;;;;;4.13;1.20;;;23.70;91.70;;;;;;5035590;28;20497;-72
2022/05/23 13:46:51;;;;;;;3.97;1.40;;;23.70;91.80;;;;;;5018054;28;20110;-73
2022/05/23 13:49:22;;;;;;;2.30;1.30;;;23.60;92.10;;;;;;4947049;29;20163;-73
2022/05/23 13:52:08;;;;;;;2.50;1.63;;;23.60;92.30;;;;;;5021820;28;20065;-73
2022/05/23 13:54:48;;;;;;;4.18;1.30;;;23.50;92.00;;;;;;5033200;28;20500;-73
2022/05/23 13:57:22;;;;;;;4.20;1.45;;;23.40;91.80;;;;;;5033451;28;20045;-73
2022/05/23 14:00:05;;;;;;;2.20;1.38;;;23.40;91.80;;;;;;5032432;28;20038;-74
2022/05/23 14:02:41;;;;;;;5.93;1.73;;;23.30;91.80;;;;;;5032982;28;20056;-73
2022/05/23 14:05:08;;;;;;;2.55;1.50;;;23.30;92.10;;;;;;5028258;28;20053;-73
2022/05/23 14:07:38;;;;;;;2.85;1.60;;;23.30;92.40;;;;;;5034154;28;20049;-73
2022/05/23 14:10:09;;;;;;;2.30;1.40;;;23.20;92.10;;;;;;5033631;28;20048;-73
2022/05/23 14:12:37;;;;;;;4.68;1.88;;;23.20;92.20;;;;;;5032703;28;20095;-74